createdAt,value
2018-08-22T00:00:37.064Z,6.37
2018-08-22T00:05:40.662Z,8.00
2018-08-22T00:10:44.263Z,7.33
2018-08-22T00:15:47.858Z,6.33
2018-08-22T00:20:51.447Z,5.60
2018-08-22T00:25:55.041Z,6.63
2018-08-22T00:30:58.664Z,6.20
2018-08-22T00:36:02.373Z,6.77
2018-08-22T00:41:06.182Z,6.83
2018-08-22T00:46:09.939Z,7.20
2018-08-22T00:51:13.537Z,6.97
2018-08-22T00:56:17.142Z,5.10
2018-08-22T01:01:20.676Z,6.17
2018-08-22T01:06:24.337Z,6.03
2018-08-22T01:11:27.947Z,4.90
2018-08-22T01:16:32.051Z,5.73
2018-08-22T01:21:36.385Z,6.50
2018-08-22T01:26:40.203Z,5.33
2018-08-22T01:31:45.514Z,5.73
2018-08-22T01:36:51.272Z,5.90
2018-08-22T01:41:58.269Z,7.03
2018-08-22T01:47:03.725Z,6.23
2018-08-22T01:52:09.032Z,6.33
2018-08-22T01:57:13.227Z,5.80
2018-08-22T02:02:17.429Z,6.80
2018-08-22T02:07:24.066Z,5.57
2018-08-22T02:12:29.612Z,5.47
2018-08-22T02:17:35.340Z,5.83
2018-08-22T02:22:39.043Z,6.60
2018-08-22T02:27:42.631Z,5.30
2018-08-22T02:32:46.233Z,6.20
2018-08-22T02:37:50.914Z,5.87
2018-08-22T02:42:54.832Z,6.80
2018-08-22T02:47:58.912Z,7.07
2018-08-22T02:53:02.830Z,7.47
2018-08-22T02:58:06.765Z,7.07
2018-08-22T03:03:11.512Z,7.37
2018-08-22T03:08:15.171Z,7.87
2018-08-22T03:13:18.811Z,7.47
2018-08-22T03:18:23.099Z,6.33
2018-08-22T03:23:28.838Z,6.23
2018-08-22T03:28:32.833Z,8.43
2018-08-22T03:33:37.468Z,6.43
2018-08-22T03:38:44.146Z,7.10
2018-08-22T03:43:49.974Z,8.13
2018-08-22T03:48:56.237Z,6.70
2018-08-22T03:54:00.585Z,7.33
2018-08-22T03:59:04.175Z,6.93
2018-08-22T04:04:08.247Z,6.17
2018-08-22T04:09:12.124Z,7.00
2018-08-22T04:14:15.748Z,8.00
2018-08-22T04:19:19.648Z,8.10
2018-08-22T04:24:25.329Z,9.63
2018-08-22T04:29:28.947Z,9.40
2018-08-22T04:34:34.126Z,8.93
2018-08-22T04:39:39.641Z,8.40
2018-08-22T04:44:44.126Z,9.97
2018-08-22T04:49:48.140Z,9.27
2018-08-22T04:54:52.229Z,11.57
2018-08-22T04:59:55.821Z,9.23
2018-08-22T05:05:00.605Z,9.20
2018-08-22T05:10:06.020Z,10.20
2018-08-22T05:15:10.027Z,9.20
2018-08-22T05:20:15.004Z,9.57
2018-08-22T05:25:19.259Z,8.70
2018-08-22T05:35:31.912Z,8.07
2018-08-22T05:40:35.500Z,9.27
2018-08-22T05:45:43.145Z,7.97
2018-08-22T05:50:47.171Z,8.77
2018-08-22T05:55:50.847Z,9.57
2018-08-22T06:00:54.703Z,9.60
2018-08-22T06:05:58.722Z,10.03
2018-08-22T06:11:02.386Z,11.20
2018-08-22T06:16:06.799Z,11.40
2018-08-22T06:21:11.006Z,12.00
2018-08-22T06:26:15.001Z,12.40
2018-08-22T06:31:18.845Z,14.13
2018-08-22T06:36:22.832Z,13.53
2018-08-22T06:41:28.634Z,16.20
2018-08-22T06:46:32.229Z,16.57
2018-08-22T06:51:35.993Z,16.50
2018-08-22T06:56:39.592Z,18.97
2018-08-22T07:01:43.527Z,22.23
2018-08-22T07:06:47.546Z,19.83
2018-08-22T07:11:51.405Z,20.43
2018-08-22T07:16:55.002Z,18.67
2018-08-22T07:22:02.702Z,17.40
2018-08-22T07:27:06.328Z,19.50
2018-08-22T07:32:10.038Z,16.10
2018-08-22T07:37:14.226Z,24.27
2018-08-22T07:42:18.576Z,22.47
2018-08-22T07:47:23.223Z,18.70
2018-08-22T07:52:26.946Z,19.23
2018-08-22T07:57:30.771Z,20.43
2018-08-22T08:02:34.373Z,19.03
2018-08-22T08:07:38.745Z,18.83
2018-08-22T08:12:43.754Z,20.10
2018-08-22T08:17:47.781Z,17.90
2018-08-22T08:22:51.477Z,23.13
2018-08-22T08:27:55.721Z,21.07
2018-08-22T08:33:00.820Z,17.97
2018-08-22T08:38:06.200Z,15.53
2018-08-22T08:43:11.036Z,18.97
2018-08-22T08:48:16.095Z,17.93
2018-08-22T08:53:20.586Z,16.90
2018-08-22T08:58:25.501Z,18.73
2018-08-22T09:03:30.238Z,14.83
2018-08-22T09:08:33.861Z,18.00
2018-08-22T09:13:53.123Z,15.47
2018-08-22T09:18:56.811Z,13.50
2018-08-22T09:24:00.495Z,13.83
2018-08-22T09:29:04.099Z,12.00
2018-08-22T09:34:07.760Z,11.33
2018-08-22T09:39:12.817Z,11.93
2018-08-22T09:44:16.576Z,13.03
2018-08-22T09:49:20.190Z,17.03
2018-08-22T09:54:23.843Z,15.63
2018-08-22T09:59:27.701Z,13.43
2018-08-22T10:04:33.098Z,18.33
2018-08-22T10:09:37.183Z,11.57
2018-08-22T10:14:41.237Z,14.43
2018-08-22T10:19:48.017Z,13.17
2018-08-22T10:24:54.136Z,10.73
2018-08-22T10:30:02.152Z,14.93
2018-08-22T10:35:06.693Z,13.50
2018-08-22T10:40:10.709Z,19.53
2018-08-22T10:45:16.396Z,21.77
2018-08-22T10:50:22.267Z,11.97
2018-08-22T10:55:27.384Z,16.20
2018-08-22T11:00:32.780Z,16.43
2018-08-22T11:05:37.977Z,16.23
2018-08-22T11:10:42.804Z,18.10
2018-08-22T11:15:47.745Z,16.33
2018-08-22T11:20:55.505Z,17.30
2018-08-22T11:26:11.823Z,17.77
2018-08-22T11:31:27.355Z,14.57
2018-08-22T11:36:30.866Z,20.37
2018-08-22T11:41:35.964Z,17.63
2018-08-22T11:46:42.408Z,22.97
2018-08-22T11:51:47.717Z,17.93
2018-08-22T11:56:52.687Z,20.27
2018-08-22T12:01:57.288Z,17.47
2018-08-22T12:07:01.230Z,15.67
2018-08-22T12:12:05.905Z,16.67
2018-08-22T12:17:11.118Z,15.13
2018-08-22T12:22:18.257Z,14.87
2018-08-22T12:27:23.003Z,12.53
2018-08-22T12:32:27.591Z,12.63
2018-08-22T12:37:33.404Z,6.80
2018-08-22T12:42:39.711Z,14.63
2018-08-22T12:47:45.853Z,10.80
2018-08-22T12:52:50.657Z,12.93
2018-08-22T12:57:56.379Z,11.80
2018-08-22T13:03:01.681Z,11.87
2018-08-22T13:08:06.226Z,12.43
2018-08-22T13:13:09.893Z,12.27
2018-08-22T13:18:13.510Z,9.83
2018-08-22T13:23:17.097Z,11.13
2018-08-22T13:28:20.789Z,11.90
2018-08-22T13:33:24.570Z,15.47
2018-08-22T13:38:28.223Z,14.03
2018-08-22T13:43:32.519Z,12.67
2018-08-22T13:48:37.475Z,12.50
2018-08-22T13:53:43.201Z,16.07
2018-08-22T13:58:50.465Z,12.70
2018-08-22T14:03:56.940Z,14.70
2018-08-22T14:09:02.862Z,12.50
2018-08-22T14:14:07.675Z,11.80
2018-08-22T14:19:12.149Z,13.43
2018-08-22T14:24:16.097Z,12.00
2018-08-22T14:29:21.843Z,11.83
2018-08-22T14:34:27.701Z,9.43
2018-08-22T14:39:34.979Z,8.80
2018-08-22T14:44:40.790Z,9.90
2018-08-22T14:49:46.688Z,9.80
2018-08-22T14:54:52.014Z,9.60
2018-08-22T14:59:57.749Z,10.70
2018-08-22T15:05:02.376Z,7.63
2018-08-22T15:10:07.689Z,8.67
2018-08-22T15:15:11.345Z,11.37
2018-08-22T15:20:15.023Z,8.13
2018-08-22T15:25:18.640Z,7.43
2018-08-22T15:30:22.217Z,8.10
2018-08-22T15:35:25.768Z,9.13
2018-08-22T15:40:29.392Z,9.07
2018-08-22T15:45:33.026Z,6.73
2018-08-22T15:50:36.603Z,8.70
2018-08-22T15:55:40.192Z,7.17
2018-08-22T16:00:49.841Z,5.60
2018-08-22T16:05:54.559Z,6.73
2018-08-22T16:10:58.222Z,6.37
2018-08-22T16:16:03.846Z,6.40
2018-08-22T16:21:07.486Z,9.80
2018-08-22T16:26:11.965Z,9.47
2018-08-22T16:31:17.828Z,5.83
2018-08-22T16:36:28.422Z,6.07
2018-08-22T16:41:32.323Z,6.17
2018-08-22T16:46:37.373Z,5.07
2018-08-22T16:51:42.218Z,5.40
2018-08-22T16:56:48.248Z,6.30
2018-08-22T17:01:52.870Z,4.80
2018-08-22T17:07:01.266Z,6.20
2018-08-22T17:12:07.437Z,5.50
2018-08-22T17:17:15.665Z,5.63
2018-08-22T17:22:20.874Z,6.53
2018-08-22T17:27:24.538Z,4.80
2018-08-22T17:32:28.212Z,6.40
2018-08-22T17:37:31.800Z,4.70
2018-08-22T17:42:38.751Z,5.60
2018-08-22T17:47:43.316Z,5.67
2018-08-22T17:52:46.906Z,5.33
2018-08-22T17:57:51.631Z,4.77
2018-08-22T18:03:08.665Z,4.40
2018-08-22T18:08:13.437Z,4.33
2018-08-22T18:13:28.508Z,4.43
2018-08-22T18:40:24.366Z,4.80
2018-08-22T18:45:28.486Z,6.67
2018-08-22T18:50:32.150Z,6.80
2018-08-22T18:55:35.798Z,6.83
2018-08-22T19:00:39.432Z,5.53
2018-08-22T19:05:43.687Z,7.87
2018-08-22T19:10:49.821Z,6.03
2018-08-22T19:15:58.416Z,6.10
2018-08-22T19:21:03.693Z,7.10
2018-08-22T19:26:08.086Z,7.33
2018-08-22T19:31:11.741Z,5.90
2018-08-22T19:36:15.966Z,5.70
2018-08-22T19:41:36.383Z,8.50
2018-08-22T19:46:39.965Z,6.93
2018-08-22T19:51:43.582Z,6.83
2018-08-22T19:56:47.169Z,11.63
2018-08-22T20:01:50.757Z,7.80
2018-08-22T20:06:57.301Z,9.63
2018-08-22T20:12:02.326Z,9.43
2018-08-22T20:17:08.700Z,10.03
2018-08-22T20:22:14.597Z,6.70
2018-08-22T20:27:19.060Z,8.63
2018-08-22T20:32:29.396Z,8.27
2018-08-22T20:37:34.198Z,10.23
2018-08-22T20:42:38.675Z,9.77
2018-08-22T20:47:43.637Z,8.00
2018-08-22T20:52:49.323Z,10.93
2018-08-22T20:57:55.479Z,8.53
2018-08-22T21:03:03.816Z,10.13
2018-08-22T21:08:09.731Z,13.10
2018-08-22T21:13:18.887Z,13.30
2018-08-22T21:18:24.926Z,11.87
2018-08-22T21:23:30.906Z,13.10
2018-08-22T21:28:41.541Z,13.17
2018-08-22T21:33:45.136Z,15.40
2018-08-22T21:38:48.813Z,17.33
2018-08-22T21:43:52.492Z,13.47
2018-08-22T21:48:57.857Z,16.37
2018-08-22T21:54:01.461Z,15.37
2018-08-22T21:59:05.061Z,16.77
2018-08-22T22:04:13.664Z,15.83
2018-08-22T22:09:17.264Z,15.30
2018-08-22T22:14:25.854Z,16.27
2018-08-22T22:19:31.765Z,17.03
2018-08-22T22:24:55.039Z,16.90
2018-08-22T22:30:02.001Z,16.47
2018-08-22T22:35:05.549Z,16.10
2018-08-22T22:40:09.443Z,16.43
2018-08-22T22:45:13.183Z,14.97
2018-08-22T22:50:17.738Z,19.17
2018-08-22T22:55:21.375Z,21.87
2018-08-22T23:00:25.022Z,17.57
2018-08-22T23:05:30.964Z,19.40
2018-08-22T23:10:34.556Z,17.87
2018-08-22T23:15:38.184Z,17.17
2018-08-22T23:20:42.819Z,19.97
2018-08-22T23:25:46.457Z,20.80
2018-08-22T23:30:50.098Z,19.07
2018-08-22T23:35:53.648Z,19.30
2018-08-22T23:40:57.438Z,19.80
2018-08-22T23:46:01.065Z,18.17
2018-08-22T23:51:06.065Z,19.63
2018-08-22T23:56:18.348Z,19.57
